createdAt,value
2022-12-12T00:01:04.699Z,25.38
2022-12-12T00:05:08.113Z,27.20
2022-12-12T00:09:10.358Z,25.35
2022-12-12T00:13:12.404Z,25.70
2022-12-12T00:17:14.430Z,28.95
2022-12-12T00:21:19.728Z,27.50
2022-12-12T00:25:21.997Z,25.65
2022-12-12T00:29:24.058Z,31.20
2022-12-12T00:33:26.337Z,26.98
2022-12-12T00:37:28.384Z,27.83
2022-12-12T00:41:30.485Z,30.05
2022-12-12T00:45:32.576Z,30.00
2022-12-12T00:49:35.039Z,30.98
2022-12-12T00:53:38.012Z,31.17
2022-12-12T00:57:40.049Z,32.50
2022-12-12T01:01:42.082Z,31.80
2022-12-12T01:05:44.410Z,29.85
2022-12-12T01:09:46.409Z,29.95
2022-12-12T01:13:50.485Z,29.13
2022-12-12T01:17:53.184Z,32.15
2022-12-12T01:21:55.627Z,29.90
2022-12-12T01:26:02.240Z,31.17
2022-12-12T01:30:05.855Z,30.33
2022-12-12T01:34:08.158Z,30.70
2022-12-12T01:38:10.176Z,30.27
2022-12-12T01:42:14.445Z,28.67
2022-12-12T01:46:33.411Z,31.48
2022-12-12T01:50:35.638Z,33.67
2022-12-12T01:54:45.234Z,31.65
2022-12-12T01:58:49.491Z,27.48
2022-12-12T02:02:53.707Z,28.98
2022-12-12T02:06:56.504Z,29.20
2022-12-12T02:10:58.826Z,27.75
2022-12-12T02:15:02.061Z,29.10
2022-12-12T02:19:52.292Z,28.15
2022-12-12T02:24:26.195Z,30.17
2022-12-12T02:29:01.620Z,29.02
2022-12-12T02:33:13.624Z,31.80
2022-12-12T02:37:26.461Z,29.08
2022-12-12T02:41:32.724Z,32.30
2022-12-12T02:45:56.602Z,30.10
2022-12-12T02:50:13.275Z,30.55
2022-12-12T02:54:18.351Z,36.10
2022-12-12T02:58:20.349Z,31.17
2022-12-12T03:02:37.632Z,31.95
2022-12-12T03:12:10.630Z,29.83
2022-12-12T03:16:32.560Z,31.73
2022-12-12T03:21:06.703Z,30.15
2022-12-12T03:25:36.689Z,31.05
2022-12-12T03:29:48.544Z,28.52
2022-12-12T03:33:56.993Z,29.40
2022-12-12T03:38:06.067Z,30.25
2022-12-12T03:42:35.780Z,28.73
2022-12-12T03:47:17.504Z,31.35
2022-12-12T03:51:29.105Z,34.47
2022-12-12T03:55:47.241Z,34.42
2022-12-12T03:59:54.327Z,36.92
2022-12-12T04:04:03.034Z,31.52
2022-12-12T04:08:11.408Z,31.40
2022-12-12T04:12:41.247Z,32.65
2022-12-12T04:16:46.755Z,32.30
2022-12-12T04:21:21.211Z,31.98
2022-12-12T04:26:03.663Z,32.85
2022-12-12T04:30:08.340Z,30.42
2022-12-12T04:34:19.364Z,32.17
2022-12-12T04:38:23.916Z,33.03
2022-12-12T04:42:29.319Z,30.88
2022-12-12T04:46:33.251Z,31.95
2022-12-12T04:50:37.187Z,33.85
2022-12-12T04:54:49.342Z,34.28
2022-12-12T04:58:51.571Z,32.60
2022-12-12T05:03:00.872Z,36.30
2022-12-12T05:07:09.141Z,34.35
2022-12-12T05:11:12.011Z,33.90
2022-12-12T05:15:16.481Z,29.58
2022-12-12T05:19:18.674Z,31.23
2022-12-12T05:23:20.689Z,28.83
2022-12-12T05:27:22.680Z,28.00
2022-12-12T05:31:24.672Z,26.20
2022-12-12T05:35:26.987Z,27.70
2022-12-12T05:39:28.957Z,25.13
2022-12-12T05:43:31.245Z,25.98
2022-12-12T05:47:33.506Z,24.15
2022-12-12T05:51:36.711Z,23.55
2022-12-12T05:55:38.761Z,22.85
2022-12-12T05:59:40.792Z,28.35
2022-12-12T06:03:42.822Z,27.83
2022-12-12T06:07:44.860Z,27.63
2022-12-12T06:11:46.895Z,27.15
2022-12-12T06:15:49.007Z,24.05
2022-12-12T06:19:52.377Z,22.83
2022-12-12T06:23:54.451Z,22.73
2022-12-12T06:27:57.383Z,20.30
2022-12-12T06:32:01.209Z,21.08
2022-12-12T06:36:13.900Z,22.17
2022-12-12T06:40:17.116Z,26.38
2022-12-12T06:44:19.161Z,25.02
2022-12-12T06:48:21.217Z,26.52
2022-12-12T06:52:23.224Z,24.88
2022-12-12T06:56:26.736Z,20.95
2022-12-12T07:00:28.739Z,25.48
2022-12-12T07:04:30.769Z,22.25
2022-12-12T07:08:34.633Z,22.67
2022-12-12T07:12:36.622Z,27.08
2022-12-12T07:16:39.179Z,29.73
2022-12-12T07:20:43.071Z,25.40
2022-12-12T07:24:45.054Z,25.33
2022-12-12T07:28:48.017Z,32.45
2022-12-12T07:32:51.866Z,25.35
2022-12-12T07:36:59.225Z,25.55
2022-12-12T07:41:07.536Z,20.73
2022-12-12T07:45:15.003Z,23.27
2022-12-12T07:49:20.019Z,30.02
2022-12-12T07:53:22.034Z,23.95
2022-12-12T07:57:24.031Z,21.00
2022-12-12T08:01:27.292Z,22.77
2022-12-12T08:05:29.302Z,20.42
2022-12-12T08:09:31.525Z,17.92
2022-12-12T08:13:36.071Z,24.20
2022-12-12T08:17:38.058Z,22.42
2022-12-12T08:21:40.048Z,24.98
2022-12-12T08:25:42.986Z,23.83
2022-12-12T08:29:45.044Z,25.33
2022-12-12T08:33:47.962Z,23.13
2022-12-12T08:37:50.930Z,24.38
2022-12-12T08:41:53.241Z,26.60
2022-12-12T08:46:02.946Z,32.85
2022-12-12T08:50:06.251Z,32.25
2022-12-12T08:54:09.935Z,32.55
2022-12-12T08:58:12.032Z,30.15
2022-12-12T09:02:14.594Z,27.40
2022-12-12T09:06:17.607Z,33.00
2022-12-12T09:10:19.986Z,31.17
2022-12-12T09:14:22.006Z,27.88
2022-12-12T09:18:24.400Z,28.48
2022-12-12T09:22:26.430Z,28.52
2022-12-12T09:26:28.452Z,32.15
2022-12-12T09:30:30.502Z,30.13
2022-12-12T09:34:33.772Z,28.70
2022-12-12T09:38:36.634Z,28.05
2022-12-12T09:42:46.270Z,30.70
2022-12-12T09:46:53.183Z,34.13
2022-12-12T09:50:55.252Z,32.95
2022-12-12T09:54:59.680Z,30.77
2022-12-12T09:59:18.984Z,29.15
2022-12-12T10:03:24.144Z,33.17
2022-12-12T10:07:42.814Z,31.83
2022-12-12T10:11:51.247Z,29.10
2022-12-12T10:16:03.043Z,30.05
2022-12-12T10:20:14.413Z,27.20
2022-12-12T10:24:33.119Z,26.17
2022-12-12T10:28:35.777Z,27.92
2022-12-12T10:32:53.363Z,37.03
2022-12-12T10:37:26.115Z,31.38
2022-12-12T10:41:42.234Z,32.47
2022-12-12T10:45:56.686Z,33.85
2022-12-12T10:50:20.574Z,29.88
2022-12-12T10:54:26.284Z,25.98
2022-12-12T10:58:37.487Z,25.50
2022-12-12T11:02:44.217Z,28.40
2022-12-12T11:06:50.666Z,27.77
2022-12-12T11:11:22.764Z,26.00
2022-12-12T11:15:32.001Z,25.45
2022-12-12T11:19:38.899Z,18.60
2022-12-12T11:23:50.327Z,23.27
2022-12-12T11:27:53.627Z,21.60
2022-12-12T11:31:56.876Z,18.25
2022-12-12T11:36:01.068Z,19.70
2022-12-12T11:40:07.419Z,19.03
2022-12-12T11:44:24.156Z,17.98
2022-12-12T11:48:48.433Z,18.83
2022-12-12T11:52:53.732Z,19.00
2022-12-12T11:57:02.082Z,22.38
2022-12-12T12:01:11.912Z,23.65
2022-12-12T12:05:25.911Z,20.65
2022-12-12T12:09:31.509Z,19.98
2022-12-12T12:14:15.193Z,18.25
2022-12-12T12:18:37.247Z,22.02
2022-12-12T12:22:51.635Z,20.20
2022-12-12T12:27:08.689Z,17.45
2022-12-12T12:31:25.919Z,21.25
2022-12-12T12:35:30.917Z,17.95
2022-12-12T12:39:59.396Z,16.15
2022-12-12T12:44:26.646Z,18.75
2022-12-12T12:48:34.666Z,19.65
2022-12-12T12:52:43.306Z,20.23
2022-12-12T12:57:04.191Z,20.00
2022-12-12T13:01:14.653Z,22.27
2022-12-12T13:05:24.318Z,22.70
2022-12-12T13:09:41.974Z,26.95
2022-12-12T13:13:47.800Z,29.70
2022-12-12T13:18:01.582Z,28.27
2022-12-12T13:22:24.401Z,28.38
2022-12-12T13:26:41.795Z,33.67
2022-12-12T13:30:55.683Z,29.85
2022-12-12T13:35:03.894Z,30.17
2022-12-12T13:39:09.039Z,33.22
2022-12-12T13:43:34.073Z,30.15
2022-12-12T13:47:36.060Z,30.05
2022-12-12T13:51:42.289Z,30.05
2022-12-12T13:55:44.462Z,30.88
2022-12-12T13:59:52.738Z,30.42
2022-12-12T14:03:55.016Z,30.65
2022-12-12T14:08:08.391Z,31.13
2022-12-12T14:12:29.150Z,31.73
2022-12-12T14:16:36.002Z,33.75
2022-12-12T14:21:00.223Z,31.77
2022-12-12T14:25:07.348Z,32.05
2022-12-12T14:29:15.399Z,28.45
2022-12-12T14:33:17.327Z,31.67
2022-12-12T14:37:28.356Z,28.95
2022-12-12T14:41:35.943Z,29.63
2022-12-12T14:45:51.280Z,27.75
2022-12-12T14:50:17.312Z,34.30
2022-12-12T14:54:21.693Z,30.90
2022-12-12T14:58:27.957Z,34.17
2022-12-12T15:02:35.283Z,30.83
2022-12-12T15:06:45.357Z,34.45
2022-12-12T15:10:59.464Z,31.15
2022-12-12T15:15:01.951Z,35.65
2022-12-12T15:19:04.173Z,34.85
2022-12-12T15:23:07.401Z,38.85
2022-12-12T15:27:19.819Z,37.55
2022-12-12T15:31:22.584Z,34.15
2022-12-12T15:35:25.039Z,31.70
2022-12-12T15:39:27.333Z,33.40
2022-12-12T15:43:31.010Z,32.17
2022-12-12T15:47:33.745Z,48.15
2022-12-12T15:51:35.789Z,59.97
2022-12-12T15:55:37.963Z,45.30
2022-12-12T15:59:40.647Z,35.58
2022-12-12T16:04:02.877Z,33.28
2022-12-12T16:08:36.294Z,35.22
2022-12-12T16:13:22.072Z,33.13
2022-12-12T16:17:25.600Z,30.10
2022-12-12T16:21:28.628Z,33.15
2022-12-12T16:25:33.995Z,30.60
2022-12-12T16:29:36.501Z,28.05
2022-12-12T16:33:40.219Z,29.63
2022-12-12T16:37:42.500Z,34.85
2022-12-12T16:41:44.671Z,32.33
2022-12-12T16:45:49.459Z,31.23
2022-12-12T16:49:51.980Z,73.07
2022-12-12T16:53:55.226Z,43.45
2022-12-12T16:57:57.238Z,40.47
2022-12-12T17:01:59.549Z,33.97
2022-12-12T17:06:01.947Z,29.83
2022-12-12T17:10:04.714Z,29.00
2022-12-12T17:14:06.773Z,29.33
2022-12-12T17:18:09.052Z,28.95
2022-12-12T17:22:11.129Z,34.35
2022-12-12T17:26:13.293Z,37.00
2022-12-12T17:30:16.269Z,46.17
2022-12-12T17:34:18.521Z,34.35
2022-12-12T17:38:20.541Z,33.65
2022-12-12T17:42:22.709Z,34.50
2022-12-12T17:46:27.695Z,32.45
2022-12-12T17:50:29.739Z,37.53
2022-12-12T17:54:32.346Z,172.35
2022-12-12T17:58:36.497Z,41.63
2022-12-12T18:02:39.848Z,29.27
2022-12-12T18:06:41.834Z,37.63
2022-12-12T18:10:43.838Z,28.92
2022-12-12T18:14:46.136Z,32.55
2022-12-12T18:18:50.382Z,34.65
2022-12-12T18:22:55.045Z,34.35
2022-12-12T18:26:59.172Z,28.30
2022-12-12T18:31:02.502Z,24.60
2022-12-12T18:35:05.006Z,27.73
2022-12-12T18:39:07.371Z,32.33
2022-12-12T18:43:09.437Z,42.78
2022-12-12T18:47:11.853Z,49.40
2022-12-12T18:51:15.869Z,43.03
2022-12-12T18:55:18.090Z,36.75
2022-12-12T18:59:20.096Z,67.38
2022-12-12T19:03:22.174Z,117.60
2022-12-12T19:07:24.275Z,94.22
2022-12-12T19:11:26.250Z,48.45
2022-12-12T19:15:28.482Z,34.80
2022-12-12T19:19:30.963Z,36.70
2022-12-12T19:23:33.564Z,36.13
2022-12-12T19:27:35.595Z,32.83
2022-12-12T19:31:37.684Z,32.53
2022-12-12T19:35:39.773Z,30.63
2022-12-12T19:39:41.952Z,30.00
2022-12-12T19:43:45.760Z,31.15
2022-12-12T19:47:47.818Z,35.00
2022-12-12T19:51:49.850Z,31.00
2022-12-12T19:55:52.081Z,32.63
2022-12-12T19:59:54.204Z,26.80
2022-12-12T20:04:01.136Z,28.35
2022-12-12T20:12:05.527Z,26.70
2022-12-12T20:16:10.895Z,27.95
2022-12-12T20:20:13.200Z,31.20
2022-12-12T20:24:17.393Z,50.22
2022-12-12T20:28:19.435Z,57.33
2022-12-12T20:32:21.481Z,56.20
2022-12-12T20:36:31.336Z,73.85
2022-12-12T20:40:39.247Z,74.97
2022-12-12T20:44:41.302Z,74.53
2022-12-12T20:48:43.940Z,71.03
2022-12-12T20:52:46.019Z,74.82
2022-12-12T20:56:50.868Z,52.03
2022-12-12T21:00:52.884Z,118.30
2022-12-12T21:04:54.917Z,88.95
2022-12-12T21:09:00.487Z,157.80
2022-12-12T21:13:02.639Z,67.10
2022-12-12T21:17:05.002Z,74.05
2022-12-12T21:21:10.865Z,76.30
2022-12-12T21:25:13.186Z,57.65
2022-12-12T21:29:16.209Z,58.33
2022-12-12T21:33:18.253Z,86.10
2022-12-12T21:37:20.317Z,148.95
2022-12-12T21:41:23.135Z,194.00
2022-12-12T21:45:25.197Z,100.05
2022-12-12T21:49:27.713Z,73.70
2022-12-12T21:53:36.014Z,56.85
2022-12-12T21:57:38.081Z,72.10
2022-12-12T22:01:40.908Z,98.13
2022-12-12T22:05:43.137Z,89.68
2022-12-12T22:09:45.191Z,75.90
2022-12-12T22:14:08.318Z,73.78
2022-12-12T22:18:10.359Z,84.13
2022-12-12T22:22:13.470Z,195.18
2022-12-12T22:26:27.681Z,108.00
2022-12-12T22:30:29.673Z,85.97
2022-12-12T22:34:31.698Z,139.93
2022-12-12T22:38:38.016Z,140.52
2022-12-12T22:42:40.535Z,168.05
2022-12-12T22:46:47.609Z,60.60
2022-12-12T22:50:49.714Z,121.72
2022-12-12T22:54:51.866Z,92.28
2022-12-12T22:58:54.257Z,94.78
2022-12-12T23:02:56.241Z,130.15
2022-12-12T23:06:58.251Z,80.55
2022-12-12T23:11:13.150Z,57.03
2022-12-12T23:15:15.830Z,83.25
2022-12-12T23:19:21.118Z,156.82
2022-12-12T23:23:23.162Z,141.93
2022-12-12T23:27:25.264Z,57.95
2022-12-12T23:31:30.221Z,74.43
2022-12-12T23:35:32.334Z,118.68
2022-12-12T23:39:34.382Z,129.07
2022-12-12T23:43:36.803Z,197.48
2022-12-12T23:47:38.843Z,163.88
2022-12-12T23:51:50.017Z,180.35
2022-12-12T23:55:52.069Z,144.65
2022-12-12T23:59:54.050Z,127.97
